Time;durP1;ratioP1;P1;durP2;ratioP2;P2;SDS_P1;SDS_P2;PMS_P1;PMS_P2;Temp;Humidity;BMP_temperature;BMP_pressure;BME280_temperature;BME280_humidity;BME280_pressure;Samples;Min_cycle;Max_cycle;Signal;HPM_P1;HPM_P2
2023/08/17 00:00:39;;;;;;;2.53;2.33;;;;;;;;;;6188692;23;20281;-84
2023/08/17 00:03:07;;;;;;;4.15;3.10;;;;;;;;;;6189578;23;20221;-85
2023/08/17 00:05:34;;;;;;;4.15;3.45;;;;;;;;;;6189501;23;20228;-82
2023/08/17 00:08:02;;;;;;;3.67;3.38;;;;;;;;;;6188394;23;20257;-85
2023/08/17 00:10:31;;;;;;;4.10;3.80;;;;;;;;;;6190784;23;20179;-83
2023/08/17 00:12:58;;;;;;;3.60;3.30;;;;;;;;;;6189669;23;20199;-84
2023/08/17 00:15:26;;;;;;;2.92;2.72;;;;;;;;;;6188574;23;20229;-84
2023/08/17 00:17:53;;;;;;;3.03;2.83;;;;;;;;;;6190116;23;20266;-84
2023/08/17 00:20:21;;;;;;;3.25;3.03;;;;;;;;;;6188762;23;20222;-85
2023/08/17 00:22:48;;;;;;;3.90;3.60;;;;;;;;;;6188314;23;20203;-85
2023/08/17 00:25:16;;;;;;;3.03;2.60;;;;;;;;;;6187141;23;20504;-85
2023/08/17 00:27:45;;;;;;;3.47;2.90;;;;;;;;;;6189642;23;20178;-85
2023/08/17 00:30:13;;;;;;;3.20;3.00;;;;;;;;;;6189108;23;20622;-85
2023/08/17 00:32:41;;;;;;;2.80;2.60;;;;;;;;;;6189088;23;20199;-85
2023/08/17 00:35:09;;;;;;;2.65;2.45;;;;;;;;;;6190053;23;20233;-84
2023/08/17 00:37:36;;;;;;;2.00;1.90;;;;;;;;;;6190143;23;20178;-85
2023/08/17 00:40:05;;;;;;;1.75;1.65;;;;;;;;;;6190336;23;20278;-83
2023/08/17 00:42:33;;;;;;;2.33;2.22;;;;;;;;;;6190469;23;20653;-83
2023/08/17 00:45:02;;;;;;;5.10;4.38;;;;;;;;;;6190961;23;20258;-83
2023/08/17 00:47:30;;;;;;;3.85;3.55;;;;;;;;;;6191506;23;20661;-84
2023/08/17 00:49:58;;;;;;;3.30;2.78;;;;;;;;;;6191046;23;20234;-85
2023/08/17 00:52:26;;;;;;;2.42;2.22;;;;;;;;;;6189965;23;20205;-85
2023/08/17 00:54:53;;;;;;;2.00;1.85;;;;;;;;;;6191495;23;20217;-85
2023/08/17 00:57:21;;;;;;;2.55;2.35;;;;;;;;;;6191859;23;20653;-84
2023/08/17 00:59:48;;;;;;;2.55;2.17;;;;;;;;;;6192655;23;20683;-84
2023/08/17 01:02:18;;;;;;;1.70;1.60;;;;;;;;;;6191181;23;20547;-82
2023/08/17 01:04:46;;;;;;;2.42;2.22;;;;;;;;;;6191221;23;20179;-85
2023/08/17 01:07:13;;;;;;;2.47;2.28;;;;;;;;;;6191897;23;20273;-84
2023/08/17 01:09:41;;;;;;;2.60;2.40;;;;;;;;;;6192122;23;20234;-84
2023/08/17 01:12:18;;;;;;;2.50;2.28;;;;;;;;;;6191457;23;20206;-84
2023/08/17 01:14:55;;;;;;;2.20;2.05;;;;;;;;;;6192154;23;20166;-85
2023/08/17 01:17:27;;;;;;;1.60;1.50;;;;;;;;;;6191637;23;20213;-84
2023/08/17 01:19:55;;;;;;;1.75;1.60;;;;;;;;;;6191036;23;20179;-84
2023/08/17 01:22:23;;;;;;;1.83;1.73;;;;;;;;;;6192193;23;20222;-84
2023/08/17 01:24:57;;;;;;;1.52;1.42;;;;;;;;;;6190147;23;20182;-84
2023/08/17 01:27:24;;;;;;;1.52;1.42;;;;;;;;;;6191233;23;20163;-84
2023/08/17 01:29:52;;;;;;;2.40;2.20;;;;;;;;;;6190335;23;20180;-84
2023/08/17 01:32:28;;;;;;;1.27;1.27;;;;;;;;;;6191019;23;20178;-84
2023/08/17 01:35:00;;;;;;;1.40;1.30;;;;;;;;;;6192727;23;20218;-84
2023/08/17 01:37:30;;;;;;;1.42;1.33;;;;;;;;;;6192553;23;20170;-84
2023/08/17 01:40:00;;;;;;;0.80;0.80;;;;;;;;;;6191004;23;20206;-83
2023/08/17 01:42:27;;;;;;;1.20;1.10;;;;;;;;;;6189111;23;20576;-83
2023/08/17 01:44:55;;;;;;;1.40;1.30;;;;;;;;;;6190870;23;20587;-84
2023/08/17 01:47:23;;;;;;;1.30;1.20;;;;;;;;;;6191264;23;20202;-83
2023/08/17 01:49:50;;;;;;;1.42;1.33;;;;;;;;;;6189276;23;20198;-84
2023/08/17 01:52:17;;;;;;;1.85;1.70;;;;;;;;;;6190799;23;20249;-85
2023/08/17 01:54:45;;;;;;;1.20;1.10;;;;;;;;;;6191944;23;20646;-84
2023/08/17 01:57:14;;;;;;;1.58;1.48;;;;;;;;;;6189123;23;20210;-84
2023/08/17 01:59:41;;;;;;;1.50;1.40;;;;;;;;;;6188898;23;20254;-83
2023/08/17 02:02:09;;;;;;;1.05;1.05;;;;;;;;;;6190689;23;20180;-83
2023/08/17 02:04:36;;;;;;;2.67;1.25;;;;;;;;;;6192028;23;20217;-83
2023/08/17 02:07:04;;;;;;;1.42;1.20;;;;;;;;;;6191318;23;20646;-82
2023/08/17 02:09:32;;;;;;;1.10;1.00;;;;;;;;;;6190328;23;20277;-82
2023/08/17 02:11:59;;;;;;;0.98;0.98;;;;;;;;;;6188731;23;20257;-81
2023/08/17 02:14:28;;;;;;;1.02;1.02;;;;;;;;;;6188057;23;20205;-82
2023/08/17 02:16:56;;;;;;;1.27;1.17;;;;;;;;;;6190246;23;20230;-82
2023/08/17 02:19:23;;;;;;;1.50;1.05;;;;;;;;;;6190441;23;20697;-82
2023/08/17 02:21:51;;;;;;;1.17;1.08;;;;;;;;;;6188642;23;20273;-82
2023/08/17 02:24:18;;;;;;;1.23;1.00;;;;;;;;;;6188763;23;20541;-83
2023/08/17 02:26:46;;;;;;;1.23;1.05;;;;;;;;;;6189450;23;20625;-83
2023/08/17 02:29:13;;;;;;;1.38;1.30;;;;;;;;;;6190079;23;20671;-82
2023/08/17 02:31:42;;;;;;;1.08;1.08;;;;;;;;;;6189258;23;20257;-81
2023/08/17 02:34:10;;;;;;;1.13;1.10;;;;;;;;;;6189668;23;20273;-83
2023/08/17 02:36:37;;;;;;;1.45;1.38;;;;;;;;;;6190407;23;20178;-81
2023/08/17 02:39:05;;;;;;;1.38;1.30;;;;;;;;;;6188832;23;20175;-82
2023/08/17 02:41:32;;;;;;;1.35;1.25;;;;;;;;;;6189170;23;20226;-82
2023/08/17 02:44:00;;;;;;;1.25;1.15;;;;;;;;;;6187967;23;20261;-82
2023/08/17 02:46:28;;;;;;;1.48;1.38;;;;;;;;;;6188481;23;20202;-82
2023/08/17 02:48:56;;;;;;;1.30;1.20;;;;;;;;;;6188679;23;20174;-82
2023/08/17 02:51:24;;;;;;;1.33;1.23;;;;;;;;;;6188539;23;20210;-81
2023/08/17 02:53:51;;;;;;;1.50;1.40;;;;;;;;;;6188604;23;20226;-82
2023/08/17 02:56:19;;;;;;;0.75;0.75;;;;;;;;;;6189624;23;20179;-83
2023/08/17 02:58:46;;;;;;;1.60;1.27;;;;;;;;;;6188719;23;20254;-83
2023/08/17 03:01:14;;;;;;;0.93;0.93;;;;;;;;;;6188610;23;20285;-83
2023/08/17 03:03:41;;;;;;;0.90;0.90;;;;;;;;;;6189713;23;20206;-83
2023/08/17 03:06:10;;;;;;;0.93;0.93;;;;;;;;;;6190689;23;20205;-82
2023/08/17 03:08:38;;;;;;;1.00;1.00;;;;;;;;;;6188395;23;20209;-82
2023/08/17 03:11:07;;;;;;;1.05;0.95;;;;;;;;;;6189406;23;20205;-82
2023/08/17 03:13:34;;;;;;;0.52;0.52;;;;;;;;;;6189004;23;20728;-83
2023/08/17 03:16:02;;;;;;;0.73;0.73;;;;;;;;;;6188196;23;20232;-83
2023/08/17 03:18:29;;;;;;;0.90;0.90;;;;;;;;;;6189105;23;20548;-83
2023/08/17 03:20:57;;;;;;;0.82;0.82;;;;;;;;;;6188299;23;20281;-82
2023/08/17 03:23:25;;;;;;;1.10;1.10;;;;;;;;;;6188636;23;20602;-82
2023/08/17 03:25:54;;;;;;;1.70;1.60;;;;;;;;;;6188779;23;20249;-83
2023/08/17 03:28:21;;;;;;;1.35;1.25;;;;;;;;;;6189352;23;20208;-83
2023/08/17 03:30:49;;;;;;;1.65;1.55;;;;;;;;;;6188320;23;20226;-83
2023/08/17 03:33:16;;;;;;;1.13;1.13;;;;;;;;;;6188899;23;20280;-82
2023/08/17 03:35:44;;;;;;;1.80;1.70;;;;;;;;;;6188841;23;20213;-83
2023/08/17 03:38:11;;;;;;;1.63;1.52;;;;;;;;;;6187814;23;20502;-82
2023/08/17 03:40:40;;;;;;;1.70;1.60;;;;;;;;;;6187344;23;20175;-84
2023/08/17 03:43:07;;;;;;;1.65;1.55;;;;;;;;;;6187548;23;20579;-82
2023/08/17 03:45:35;;;;;;;2.45;1.60;;;;;;;;;;6188441;23;20645;-81
2023/08/17 03:48:02;;;;;;;1.90;1.80;;;;;;;;;;6188607;23;20656;-82
2023/08/17 03:50:30;;;;;;;1.80;1.70;;;;;;;;;;6186739;23;20258;-82
2023/08/17 03:52:57;;;;;;;1.80;1.70;;;;;;;;;;6188564;23;20214;-83
2023/08/17 03:55:25;;;;;;;2.30;2.10;;;;;;;;;;6188931;23;20178;-82
2023/08/17 03:57:54;;;;;;;2.28;2.10;;;;;;;;;;6188638;23;20174;-83
2023/08/17 04:00:21;;;;;;;1.70;1.60;;;;;;;;;;6187519;23;20181;-82
2023/08/17 04:02:49;;;;;;;2.40;2.20;;;;;;;;;;6189347;23;20277;-84
2023/08/17 04:05:16;;;;;;;1.60;1.50;;;;;;;;;;6188566;23;20254;-83
2023/08/17 04:07:45;;;;;;;1.67;1.58;;;;;;;;;;6187183;23;20378;-84
2023/08/17 04:10:12;;;;;;;1.80;1.67;;;;;;;;;;6189813;23;20206;-83
2023/08/17 04:12:39;;;;;;;2.45;2.25;;;;;;;;;;6190118;23;20278;-84
2023/08/17 04:15:09;;;;;;;1.98;1.80;;;;;;;;;;6189875;23;20225;-83
2023/08/17 04:17:37;;;;;;;2.90;2.65;;;;;;;;;;6189637;23;20265;-83
2023/08/17 04:20:05;;;;;;;4.65;2.78;;;;;;;;;;6190436;23;20210;-84
2023/08/17 04:22:33;;;;;;;2.85;2.65;;;;;;;;;;6189315;23;20198;-83
2023/08/17 04:25:00;;;;;;;4.68;4.13;;;;;;;;;;6191076;23;20210;-85
2023/08/17 04:27:28;;;;;;;3.72;3.53;;;;;;;;;;6190296;23;20249;-84
2023/08/17 04:29:55;;;;;;;4.25;3.95;;;;;;;;;;6190333;23;20261;-83
2023/08/17 04:32:24;;;;;;;3.33;3.05;;;;;;;;;;6191039;23;20708;-83
2023/08/17 04:34:51;;;;;;;3.42;3.20;;;;;;;;;;6190245;23;20762;-84
2023/08/17 04:37:19;;;;;;;4.50;4.20;;;;;;;;;;6190311;23;20249;-84
2023/08/17 04:39:48;;;;;;;4.05;3.75;;;;;;;;;;6189462;23;20213;-84
2023/08/17 04:42:16;;;;;;;3.47;3.17;;;;;;;;;;6190292;23;20230;-83
2023/08/17 04:44:43;;;;;;;4.15;3.40;;;;;;;;;;6190744;23;20209;-83
2023/08/17 04:47:11;;;;;;;4.72;4.40;;;;;;;;;;6192127;23;20209;-84
2023/08/17 04:49:40;;;;;;;4.28;3.97;;;;;;;;;;6191689;23;20231;-83
2023/08/17 04:52:07;;;;;;;4.35;4.05;;;;;;;;;;6191185;23;20174;-83
2023/08/17 04:54:35;;;;;;;4.55;4.20;;;;;;;;;;6192459;23;20225;-84
2023/08/17 04:57:04;;;;;;;5.03;3.80;;;;;;;;;;6192728;23;20505;-83
2023/08/17 04:59:31;;;;;;;5.13;4.82;;;;;;;;;;6192130;23;20178;-84
2023/08/17 05:01:59;;;;;;;5.85;5.35;;;;;;;;;;6191374;23;20225;-85
2023/08/17 05:04:26;;;;;;;6.03;5.63;;;;;;;;;;6189956;23;20274;-84
2023/08/17 05:06:56;;;;;;;6.13;5.60;;;;;;;;;;6191495;23;20217;-83
2023/08/17 05:09:24;;;;;;;4.90;4.60;;;;;;;;;;6191085;23;20178;-83
2023/08/17 05:11:51;;;;;;;6.03;5.43;;;;;;;;;;6190522;23;20633;-84
2023/08/17 05:14:19;;;;;;;4.10;3.80;;;;;;;;;;6190601;23;20222;-83
2023/08/17 05:16:46;;;;;;;5.65;5.25;;;;;;;;;;6190469;23;20241;-82
2023/08/17 05:19:14;;;;;;;4.40;4.05;;;;;;;;;;6190328;23;20483;-83
2023/08/17 05:21:41;;;;;;;5.88;5.38;;;;;;;;;;6190934;23;20212;-82
2023/08/17 05:24:10;;;;;;;3.55;3.30;;;;;;;;;;6189847;23;20235;-83
2023/08/17 05:26:38;;;;;;;5.70;5.15;;;;;;;;;;6191366;23;20209;-84
2023/08/17 05:29:05;;;;;;;4.65;4.28;;;;;;;;;;6189078;23;20503;-84
2023/08/17 05:31:32;;;;;;;4.95;4.55;;;;;;;;;;6190140;23;20262;-83
2023/08/17 05:34:00;;;;;;;6.28;5.68;;;;;;;;;;6190362;23;20274;-82
2023/08/17 05:36:27;;;;;;;6.25;5.72;;;;;;;;;;6190995;23;20555;-83
2023/08/17 05:38:55;;;;;;;6.28;5.78;;;;;;;;;;6190209;23;20253;-83
2023/08/17 05:41:24;;;;;;;6.30;5.80;;;;;;;;;;6190342;23;20197;-82
2023/08/17 05:43:52;;;;;;;5.38;4.97;;;;;;;;;;6191583;23;20226;-83
2023/08/17 05:46:19;;;;;;;5.93;5.43;;;;;;;;;;6190238;23;20681;-83
2023/08/17 05:48:47;;;;;;;5.22;4.72;;;;;;;;;;6190463;23;20261;-82
2023/08/17 05:51:14;;;;;;;5.38;4.88;;;;;;;;;;6190221;23;20601;-83
2023/08/17 05:53:42;;;;;;;5.28;4.88;;;;;;;;;;6190859;23;20281;-82
2023/08/17 05:56:09;;;;;;;4.70;4.30;;;;;;;;;;6189963;23;20257;-82
2023/08/17 05:58:38;;;;;;;4.53;4.13;;;;;;;;;;6190896;23;20205;-81
2023/08/17 06:01:07;;;;;;;5.22;4.72;;;;;;;;;;6191134;23;20297;-82
2023/08/17 06:03:34;;;;;;;5.40;4.40;;;;;;;;;;6189595;23;20273;-82
2023/08/17 06:06:02;;;;;;;5.85;4.97;;;;;;;;;;6190287;23;20262;-82
2023/08/17 06:08:29;;;;;;;6.38;5.82;;;;;;;;;;6190675;23;20178;-80
2023/08/17 06:10:57;;;;;;;4.05;3.75;;;;;;;;;;6191486;23;20174;-81
2023/08/17 06:13:25;;;;;;;5.53;5.03;;;;;;;;;;6190121;23;20282;-82
2023/08/17 06:15:53;;;;;;;5.60;5.07;;;;;;;;;;6189485;23;20675;-82
2023/08/17 06:18:21;;;;;;;5.70;5.13;;;;;;;;;;6190354;23;20190;-81
2023/08/17 06:20:51;;;;;;;6.05;5.47;;;;;;;;;;6190466;23;20185;-81
2023/08/17 06:23:19;;;;;;;6.55;5.95;;;;;;;;;;6188912;23;20206;-81
2023/08/17 06:25:47;;;;;;;6.50;5.90;;;;;;;;;;6190123;23;20210;-81
2023/08/17 06:28:14;;;;;;;6.95;6.35;;;;;;;;;;6190477;23;20230;-81
2023/08/17 06:30:42;;;;;;;7.18;6.57;;;;;;;;;;6189437;23;20617;-81
2023/08/17 06:33:11;;;;;;;6.60;6.00;;;;;;;;;;6188587;23;20194;-81
2023/08/17 06:35:38;;;;;;;5.90;5.35;;;;;;;;;;6190597;23;20182;-81
2023/08/17 06:38:06;;;;;;;6.88;6.25;;;;;;;;;;6188002;23;20206;-82
2023/08/17 06:40:33;;;;;;;6.28;5.68;;;;;;;;;;6187645;23;20175;-82
2023/08/17 06:43:01;;;;;;;5.60;5.18;;;;;;;;;;6189236;23;20664;-82
2023/08/17 06:45:28;;;;;;;6.80;6.10;;;;;;;;;;6188840;23;20228;-82
2023/08/17 06:47:56;;;;;;;6.78;5.80;;;;;;;;;;6188208;23;20229;-82
2023/08/17 06:50:26;;;;;;;6.88;6.28;;;;;;;;;;6189178;23;20720;-81
2023/08/17 06:52:54;;;;;;;5.38;4.88;;;;;;;;;;6190999;23;20277;-83
2023/08/17 06:55:22;;;;;;;6.07;5.53;;;;;;;;;;6190057;23;20178;-81
2023/08/17 06:57:51;;;;;;;5.22;4.72;;;;;;;;;;6190489;23;20186;-81
2023/08/17 07:00:20;;;;;;;5.90;5.28;;;;;;;;;;6189239;23;20178;-81
2023/08/17 07:02:48;;;;;;;7.68;6.90;;;;;;;;;;6188817;23;20202;-81
2023/08/17 07:05:16;;;;;;;9.45;8.57;;;;;;;;;;6188347;23;20197;-81
2023/08/17 07:07:45;;;;;;;8.45;7.65;;;;;;;;;;6189320;23;20205;-81
2023/08/17 07:10:12;;;;;;;6.75;6.15;;;;;;;;;;6191094;23;20178;-81
2023/08/17 07:12:40;;;;;;;6.45;5.95;;;;;;;;;;6188969;23;20273;-80
2023/08/17 07:15:09;;;;;;;6.35;5.80;;;;;;;;;;6189792;23;20710;-81
2023/08/17 07:17:37;;;;;;;4.80;4.43;;;;;;;;;;6189446;23;20190;-81
2023/08/17 07:20:07;;;;;;;6.43;5.90;;;;;;;;;;6189256;23;20261;-80
2023/08/17 07:22:35;;;;;;;7.05;6.45;;;;;;;;;;6188703;23;20194;-79
2023/08/17 07:25:04;;;;;;;7.05;6.43;;;;;;;;;;6187662;23;20222;-81
2023/08/17 07:27:31;;;;;;;5.63;5.13;;;;;;;;;;6187436;23;20546;-81
2023/08/17 07:29:59;;;;;;;3.47;3.17;;;;;;;;;;6188579;23;20618;-81
2023/08/17 07:32:26;;;;;;;3.22;3.00;;;;;;;;;;6187472;23;20226;-81
2023/08/17 07:34:54;;;;;;;5.13;4.72;;;;;;;;;;6187296;23;20209;-81
2023/08/17 07:37:22;;;;;;;4.40;4.03;;;;;;;;;;6187247;23;20669;-81
2023/08/17 07:39:49;;;;;;;4.22;3.92;;;;;;;;;;6187245;23;20196;-81
2023/08/17 07:42:18;;;;;;;3.03;2.83;;;;;;;;;;6187304;23;20223;-81
2023/08/17 07:44:45;;;;;;;4.25;3.95;;;;;;;;;;6188952;23;20194;-81
2023/08/17 07:47:13;;;;;;;3.30;3.10;;;;;;;;;;6189199;23;20233;-81
2023/08/17 07:49:40;;;;;;;4.15;3.83;;;;;;;;;;6188745;23;20202;-81
2023/08/17 07:52:08;;;;;;;4.15;3.85;;;;;;;;;;6188223;23;20253;-81
2023/08/17 07:54:35;;;;;;;3.83;3.53;;;;;;;;;;6188215;23;20257;-81
2023/08/17 07:57:03;;;;;;;4.78;4.38;;;;;;;;;;6189420;23;20206;-81
2023/08/17 07:59:32;;;;;;;4.45;4.05;;;;;;;;;;6188978;23;20185;-81
2023/08/17 08:01:59;;;;;;;4.78;4.43;;;;;;;;;;6187792;23;20209;-81
2023/08/17 08:04:27;;;;;;;4.88;4.47;;;;;;;;;;6188302;23;20220;-81
2023/08/17 08:06:54;;;;;;;4.68;4.28;;;;;;;;;;6188464;23;20261;-81
2023/08/17 08:09:22;;;;;;;3.63;3.38;;;;;;;;;;6189436;23;20253;-82
2023/08/17 08:11:49;;;;;;;6.97;4.63;;;;;;;;;;6189135;23;20261;-81
2023/08/17 08:14:17;;;;;;;4.10;3.80;;;;;;;;;;6189631;23;20305;-81
2023/08/17 08:16:46;;;;;;;3.33;3.13;;;;;;;;;;6188229;23;20217;-80
2023/08/17 08:19:14;;;;;;;4.65;4.25;;;;;;;;;;6189948;23;20174;-80
2023/08/17 08:21:41;;;;;;;4.95;3.13;;;;;;;;;;6188705;23;20261;-80
2023/08/17 08:24:09;;;;;;;3.65;3.35;;;;;;;;;;6188593;23;20277;-80
2023/08/17 08:26:36;;;;;;;3.92;2.60;;;;;;;;;;6187437;23;20581;-81
2023/08/17 08:29:04;;;;;;;3.20;3.00;;;;;;;;;;6189404;23;20253;-81
2023/08/17 08:31:32;;;;;;;3.55;3.33;;;;;;;;;;6189026;23;20174;-81
2023/08/17 08:34:00;;;;;;;4.18;3.88;;;;;;;;;;6187665;23;20273;-80
2023/08/17 08:36:28;;;;;;;3.75;3.45;;;;;;;;;;6188746;23;20174;-80
2023/08/17 08:38:55;;;;;;;2.67;2.47;;;;;;;;;;6188493;23;20257;-81
2023/08/17 08:41:23;;;;;;;2.38;2.17;;;;;;;;;;6189526;23;20221;-81
2023/08/17 08:43:50;;;;;;;3.80;3.50;;;;;;;;;;6188560;23;20282;-80
2023/08/17 08:46:19;;;;;;;2.65;2.45;;;;;;;;;;6189099;23;20576;-80
2023/08/17 08:48:47;;;;;;;3.45;3.20;;;;;;;;;;6188687;23;20262;-81
2023/08/17 08:51:19;;;;;;;2.03;1.88;;;;;;;;;;6189334;23;20552;-80
2023/08/17 08:53:47;;;;;;;2.70;2.50;;;;;;;;;;6187414;23;20273;-80
2023/08/17 08:56:14;;;;;;;2.10;2.00;;;;;;;;;;6188182;23;20201;-80
2023/08/17 08:58:44;;;;;;;2.00;1.85;;;;;;;;;;6188880;23;20249;-80
2023/08/17 09:01:12;;;;;;;1.80;1.70;;;;;;;;;;6188549;23;20616;-80
2023/08/17 09:03:40;;;;;;;2.13;2.03;;;;;;;;;;6188952;23;20198;-80
2023/08/17 09:06:07;;;;;;;2.47;2.28;;;;;;;;;;6189316;23;20257;-81
2023/08/17 09:08:36;;;;;;;1.85;1.75;;;;;;;;;;6188698;23;20253;-81
2023/08/17 09:11:04;;;;;;;2.15;2.05;;;;;;;;;;6187181;23;20265;-80
2023/08/17 09:13:31;;;;;;;3.00;2.80;;;;;;;;;;6188346;23;20281;-81
2023/08/17 09:16:01;;;;;;;3.55;3.10;;;;;;;;;;6187478;23;20205;-81
2023/08/17 09:18:28;;;;;;;3.75;3.45;;;;;;;;;;6189307;23;20178;-80
2023/08/17 09:20:56;;;;;;;2.72;2.53;;;;;;;;;;6188515;23;20202;-80
2023/08/17 09:23:24;;;;;;;4.40;4.10;;;;;;;;;;6187316;23;20246;-81
2023/08/17 09:25:57;;;;;;;3.67;3.38;;;;;;;;;;6187870;23;20208;-81
2023/08/17 09:28:25;;;;;;;2.88;2.67;;;;;;;;;;6188555;23;20197;-80
2023/08/17 09:30:54;;;;;;;4.43;4.05;;;;;;;;;;6187492;23;20202;-81
2023/08/17 09:33:23;;;;;;;3.50;3.20;;;;;;;;;;6188889;23;20277;-82
2023/08/17 09:35:51;;;;;;;3.67;3.30;;;;;;;;;;6186968;23;20175;-79
2023/08/17 09:38:19;;;;;;;4.72;3.90;;;;;;;;;;6188275;23;20214;-80
2023/08/17 09:40:47;;;;;;;2.88;2.67;;;;;;;;;;6188227;23;20177;-80
2023/08/17 09:43:17;;;;;;;2.90;2.67;;;;;;;;;;6187929;23;20297;-80
2023/08/17 09:45:47;;;;;;;2.53;2.25;;;;;;;;;;6187537;23;20301;-79
2023/08/17 09:48:17;;;;;;;3.42;3.17;;;;;;;;;;6187320;23;20527;-80
2023/08/17 09:50:45;;;;;;;3.00;2.80;;;;;;;;;;6188613;23;20194;-80
2023/08/17 09:53:15;;;;;;;3.10;2.83;;;;;;;;;;6188674;23;20542;-79
2023/08/17 09:55:43;;;;;;;2.70;2.50;;;;;;;;;;6189140;23;20639;-80
2023/08/17 09:58:14;;;;;;;3.45;3.15;;;;;;;;;;6188918;23;20259;-79
2023/08/17 10:00:46;;;;;;;4.38;4.00;;;;;;;;;;6189410;23;20218;-79
2023/08/17 10:03:16;;;;;;;4.57;3.35;;;;;;;;;;6190209;23;20257;-79
2023/08/17 10:05:47;;;;;;;3.60;3.10;;;;;;;;;;6187481;23;20202;-79
2023/08/17 10:08:14;;;;;;;2.30;2.10;;;;;;;;;;6189785;23;20526;-79
2023/08/17 10:10:46;;;;;;;2.67;2.47;;;;;;;;;;6190015;23;20206;-79
2023/08/17 10:13:17;;;;;;;2.22;2.03;;;;;;;;;;6188586;23;20234;-79
2023/08/17 10:15:56;;;;;;;2.03;1.90;;;;;;;;;;6191332;23;20521;-79
2023/08/17 10:18:30;;;;;;;1.63;1.52;;;;;;;;;;6188655;23;20233;-80
2023/08/17 10:21:04;;;;;;;2.45;2.00;;;;;;;;;;6189948;23;20489;-78
2023/08/17 10:23:32;;;;;;;1.73;1.63;;;;;;;;;;6189862;23;20205;-78
2023/08/17 10:26:03;;;;;;;2.15;1.70;;;;;;;;;;6189768;23;20198;-78
2023/08/17 10:28:33;;;;;;;3.08;2.40;;;;;;;;;;6189543;23;20170;-78
2023/08/17 10:31:02;;;;;;;1.90;1.80;;;;;;;;;;6186647;23;20280;-76
2023/08/17 10:33:30;;;;;;;1.60;1.50;;;;;;;;;;6185658;23;20711;-77
2023/08/17 10:35:58;;;;;;;1.70;1.60;;;;;;;;;;6188127;23;20285;-92
2023/08/17 10:38:26;;;;;;;1.90;1.80;;;;;;;;;;6197774;23;20182;-93
2023/08/17 10:41:10;;;;;;;1.60;1.30;;;;;;;;;;6207290;23;20194;-93
2023/08/17 10:43:55;;;;;;;1.10;1.10;;;;;;;;;;6211932;23;20214;-94
2023/08/17 10:46:34;;;;;;;1.55;1.48;;;;;;;;;;6206163;23;20194;-93
2023/08/17 10:49:06;;;;;;;1.52;1.42;;;;;;;;;;6203427;23;20178;-93
2023/08/17 10:51:35;;;;;;;1.55;1.45;;;;;;;;;;6206960;23;20182;-93
2023/08/17 10:54:04;;;;;;;1.60;1.50;;;;;;;;;;6210306;23;20189;-93
2023/08/17 10:56:33;;;;;;;1.40;1.30;;;;;;;;;;6209974;23;20166;-93
2023/08/17 10:59:02;;;;;;;1.92;1.83;;;;;;;;;;6205517;23;20170;-94
2023/08/17 11:01:36;;;;;;;1.40;1.30;;;;;;;;;;6207492;23;20249;-92
2023/08/17 11:04:16;;;;;;;1.75;1.45;;;;;;;;;;6204994;23;20174;-93
2023/08/17 11:06:46;;;;;;;1.10;1.10;;;;;;;;;;6209900;23;20207;-93
2023/08/17 11:09:16;;;;;;;1.90;1.50;;;;;;;;;;6208375;23;20205;-93
2023/08/17 11:11:44;;;;;;;1.80;1.70;;;;;;;;;;6203385;23;20197;-94
2023/08/17 11:14:11;;;;;;;1.27;1.17;;;;;;;;;;6198584;23;20206;-94
2023/08/17 11:16:40;;;;;;;1.35;1.27;;;;;;;;;;6205661;23;20158;-94
2023/08/17 11:19:08;;;;;;;1.75;1.65;;;;;;;;;;6208301;23;20167;-94
2023/08/17 11:21:35;;;;;;;1.13;1.13;;;;;;;;;;6199822;23;20674;-93
2023/08/17 11:24:02;;;;;;;1.65;1.55;;;;;;;;;;6193614;23;20248;-92
2023/08/17 11:26:30;;;;;;;1.42;1.10;;;;;;;;;;6199849;23;20209;-92
2023/08/17 11:28:57;;;;;;;1.40;1.30;;;;;;;;;;6200778;23;20182;-93
2023/08/17 11:31:26;;;;;;;3.42;3.22;;;;;;;;;;6198237;23;20205;-93
2023/08/17 11:33:55;;;;;;;2.20;1.77;;;;;;;;;;6205522;23;20158;-93
2023/08/17 11:36:23;;;;;;;1.30;1.30;;;;;;;;;;6208918;23;20180;-93
2023/08/17 11:38:51;;;;;;;1.40;1.30;;;;;;;;;;6207996;23;20166;-94
2023/08/17 11:41:20;;;;;;;2.15;1.70;;;;;;;;;;6207590;23;20206;-94
2023/08/17 11:43:48;;;;;;;1.40;1.40;;;;;;;;;;6204435;23;20175;-92
2023/08/17 11:46:15;;;;;;;1.50;1.40;;;;;;;;;;6199971;23;20198;-93
2023/08/17 11:48:43;;;;;;;1.50;1.40;;;;;;;;;;6204827;23;20626;-93
2023/08/17 11:51:12;;;;;;;1.75;1.65;;;;;;;;;;6203936;23;20201;-93
2023/08/17 11:53:41;;;;;;;1.60;1.50;;;;;;;;;;6207496;23;20179;-94
2023/08/17 11:56:09;;;;;;;1.38;1.35;;;;;;;;;;6210597;23;20165;-94
2023/08/17 11:58:44;;;;;;;1.70;1.60;;;;;;;;;;6212788;23;20158;-93
2023/08/17 12:01:12;;;;;;;1.70;1.60;;;;;;;;;;6212459;23;20182;-93
2023/08/17 12:03:41;;;;;;;1.42;1.33;;;;;;;;;;6212547;23;20143;-94
2023/08/17 12:06:12;;;;;;;1.40;1.30;;;;;;;;;;6212523;23;20190;-93
2023/08/17 12:08:42;;;;;;;1.50;1.40;;;;;;;;;;6212869;23;20142;-95
2023/08/17 12:11:09;;;;;;;1.33;1.27;;;;;;;;;;6212741;23;20174;-94
2023/08/17 12:13:38;;;;;;;1.80;1.70;;;;;;;;;;6212118;23;20171;-94
2023/08/17 12:16:06;;;;;;;1.90;1.80;;;;;;;;;;6212686;23;20181;-95
2023/08/17 12:18:35;;;;;;;1.42;1.33;;;;;;;;;;6212383;23;20154;-93
2023/08/17 12:21:04;;;;;;;0.90;0.90;;;;;;;;;;6212089;23;20183;-95
2023/08/17 12:23:34;;;;;;;1.17;1.10;;;;;;;;;;6212467;23;20178;-94
2023/08/17 12:26:03;;;;;;;1.60;1.50;;;;;;;;;;6212581;23;20165;-96
2023/08/17 12:28:31;;;;;;;1.85;1.58;;;;;;;;;;6212724;23;20165;-95
2023/08/17 12:31:00;;;;;;;1.88;1.48;;;;;;;;;;6213332;23;20173;-95
2023/08/17 12:33:31;;;;;;;1.58;1.48;;;;;;;;;;6208196;23;20215;-95
2023/08/17 12:36:06;;;;;;;1.67;1.58;;;;;;;;;;6156496;23;20156;-95
2023/08/17 12:38:44;;;;;;;1.40;1.40;;;;;;;;;;6156463;23;20158;-95
2023/08/17 12:41:13;;;;;;;1.70;1.60;;;;;;;;;;6156428;23;20158;-93
2023/08/17 12:43:53;;;;;;;1.88;1.77;;;;;;;;;;6156292;23;20155;-95
2023/08/17 12:46:24;;;;;;;1.50;1.40;;;;;;;;;;6156372;23;20156;-94
2023/08/17 12:48:57;;;;;;;1.60;1.50;;;;;;;;;;6156179;23;20164;-96
2023/08/17 12:51:34;;;;;;;1.90;1.80;;;;;;;;;;6156425;23;20200;-95
2023/08/17 12:54:21;;;;;;;1.20;1.20;;;;;;;;;;6156478;23;20152;-94
2023/08/17 12:56:56;;;;;;;1.65;1.55;;;;;;;;;;6156449;23;20158;-94
2023/08/17 12:59:38;;;;;;;2.05;1.95;;;;;;;;;;6156336;23;20151;-95
2023/08/17 13:02:37;;;;;;;1.60;1.50;;;;;;;;;;6156360;23;20159;-94
2023/08/17 13:08:40;;;;;;;1.67;1.58;;;;;;;;;;6153685;23;20212;-95
2023/08/17 16:20:14;;;;;;;1.85;1.75;;;;;;;;;;6175984;23;20186;-93
2023/08/17 16:22:42;;;;;;;1.65;1.55;;;;;;;;;;6176727;23;20199;-96
